Time;durP1;ratioP1;P1;durP2;ratioP2;P2;SDS_P1;SDS_P2;PMS_P1;PMS_P2;Temp;Humidity;BMP_temperature;BMP_pressure;BME280_temperature;BME280_humidity;BME280_pressure;Samples;Min_cycle;Max_cycle;Signal;HPM_P1;HPM_P2
2023/10/30 00:01:47;;;;;;;4.70;0.85;;;9.60;99.90;;;;;;4969915;28;20124;-67
2023/10/30 00:04:13;;;;;;;4.55;0.88;;;9.60;99.90;;;;;;4964404;28;20046;-67
2023/10/30 00:06:39;;;;;;;6.38;1.20;;;9.60;99.90;;;;;;4971058;28;20374;-68
2023/10/30 00:09:04;;;;;;;4.85;1.20;;;9.50;99.90;;;;;;4972274;28;20046;-68
2023/10/30 00:11:30;;;;;;;4.05;1.52;;;9.50;99.90;;;;;;4969303;28;20045;-68
2023/10/30 00:13:56;;;;;;;5.43;1.10;;;9.40;99.90;;;;;;4962850;28;20036;-67
2023/10/30 00:16:21;;;;;;;3.83;1.17;;;9.40;99.90;;;;;;4973510;28;20038;-70
2023/10/30 00:18:48;;;;;;;5.72;1.40;;;9.40;99.90;;;;;;4971909;28;20117;-67
2023/10/30 00:21:14;;;;;;;3.95;1.00;;;9.40;99.90;;;;;;4969792;28;20630;-70
2023/10/30 00:23:39;;;;;;;3.70;1.20;;;9.30;99.90;;;;;;4971894;28;20133;-68
2023/10/30 00:26:05;;;;;;;5.18;1.40;;;9.40;99.90;;;;;;4970470;28;20034;-67
2023/10/30 00:28:33;;;;;;;3.38;1.00;;;9.40;99.90;;;;;;4978932;28;20081;-68
2023/10/30 00:30:59;;;;;;;4.82;1.33;;;9.30;99.90;;;;;;4970546;28;20046;-68
2023/10/30 00:33:25;;;;;;;5.70;1.60;;;9.30;99.90;;;;;;4970577;28;20465;-66
2023/10/30 00:35:50;;;;;;;5.22;1.30;;;9.30;99.90;;;;;;4968339;28;20042;-71
2023/10/30 00:38:16;;;;;;;4.80;1.40;;;9.20;99.90;;;;;;4971451;28;20042;-68
2023/10/30 00:40:42;;;;;;;6.70;1.30;;;9.30;99.90;;;;;;4969845;28;20050;-68
2023/10/30 00:43:07;;;;;;;2.53;1.25;;;9.30;99.90;;;;;;4984783;28;20782;-68
2023/10/30 00:45:33;;;;;;;4.03;1.63;;;9.20;99.90;;;;;;4967391;28;20034;-68
2023/10/30 00:47:59;;;;;;;7.40;1.70;;;9.10;99.90;;;;;;4979083;28;20069;-67
2023/10/30 00:50:24;;;;;;;6.45;1.60;;;9.10;99.90;;;;;;4985526;28;20064;-68
2023/10/30 00:52:50;;;;;;;4.28;1.45;;;9.10;99.90;;;;;;4969224;28;20089;-66
2023/10/30 00:55:16;;;;;;;3.15;1.27;;;9.10;99.90;;;;;;4969887;28;20112;-69
2023/10/30 00:57:41;;;;;;;6.13;1.52;;;9.10;99.90;;;;;;4977905;28;20057;-68
2023/10/30 01:00:07;;;;;;;7.55;1.55;;;9.20;99.90;;;;;;4969259;28;20367;-69
2023/10/30 01:02:33;;;;;;;5.57;1.48;;;9.20;99.90;;;;;;4963848;28;20104;-69
2023/10/30 01:04:59;;;;;;;2.50;1.10;;;9.20;99.90;;;;;;4972970;28;20038;-67
2023/10/30 01:07:24;;;;;;;6.65;1.63;;;9.10;99.90;;;;;;4970055;28;20399;-67
2023/10/30 01:09:50;;;;;;;3.60;1.30;;;9.10;99.90;;;;;;4968339;28;20042;-67
2023/10/30 01:12:16;;;;;;;3.15;1.17;;;9.10;99.90;;;;;;4977805;28;20085;-67
2023/10/30 01:14:42;;;;;;;4.18;1.48;;;9.10;99.90;;;;;;4953800;28;20077;-67
2023/10/30 01:17:07;;;;;;;7.40;1.40;;;9.00;99.90;;;;;;4968252;28;20049;-68
2023/10/30 01:19:33;;;;;;;4.70;1.67;;;9.00;99.90;;;;;;4967566;28;20049;-67
2023/10/30 01:21:59;;;;;;;5.60;1.80;;;9.00;99.90;;;;;;4953620;28;20169;-68
2023/10/30 01:24:25;;;;;;;5.40;1.75;;;8.90;99.90;;;;;;4990825;28;20030;-66
2023/10/30 01:26:50;;;;;;;5.88;1.60;;;8.90;99.90;;;;;;4964025;28;20112;-69
2023/10/30 01:29:16;;;;;;;5.80;1.48;;;8.90;99.90;;;;;;4984789;28;20485;-68
2023/10/30 01:31:42;;;;;;;6.50;1.60;;;8.90;99.90;;;;;;4968043;28;20081;-68
2023/10/30 01:34:08;;;;;;;3.53;1.55;;;8.90;99.90;;;;;;4968376;28;20450;-68
2023/10/30 01:36:34;;;;;;;6.72;1.48;;;8.80;99.90;;;;;;4966256;28;20138;-67
2023/10/30 01:38:59;;;;;;;4.50;1.50;;;8.80;99.90;;;;;;4965268;28;20451;-67
2023/10/30 01:41:25;;;;;;;5.03;1.40;;;8.90;99.90;;;;;;4968315;28;20522;-68
2023/10/30 01:43:51;;;;;;;7.72;1.73;;;8.90;99.90;;;;;;4967472;28;20039;-67
2023/10/30 01:46:17;;;;;;;3.90;1.50;;;8.80;99.90;;;;;;4965054;28;20403;-67
2023/10/30 01:48:42;;;;;;;6.28;1.70;;;8.90;99.90;;;;;;4971243;28;20034;-66
2023/10/30 01:51:10;;;;;;;5.05;1.70;;;8.90;99.90;;;;;;4974679;28;20045;-70
2023/10/30 01:53:37;;;;;;;7.85;1.48;;;8.80;99.90;;;;;;4952377;28;20461;-69
2023/10/30 01:56:03;;;;;;;5.43;1.40;;;8.90;99.90;;;;;;4959426;28;20051;-69
2023/10/30 01:58:33;;;;;;;6.97;1.80;;;8.90;99.90;;;;;;4958191;28;20134;-67
2023/10/30 02:00:59;;;;;;;5.43;1.88;;;9.00;99.90;;;;;;4966563;28;20161;-67
2023/10/30 02:03:26;;;;;;;6.38;1.70;;;8.90;99.90;;;;;;4958963;28;20061;-66
2023/10/30 02:05:51;;;;;;;4.18;1.65;;;8.90;99.90;;;;;;4977305;28;20042;-66
2023/10/30 02:08:17;;;;;;;7.68;1.77;;;8.90;99.90;;;;;;4969478;28;20037;-68
2023/10/30 02:10:43;;;;;;;6.47;1.73;;;8.90;99.90;;;;;;4960589;28;20499;-67
2023/10/30 02:13:10;;;;;;;7.60;1.77;;;8.90;99.90;;;;;;4958164;28;20407;-69
2023/10/30 02:15:36;;;;;;;4.50;1.60;;;9.00;99.90;;;;;;4983806;28;20375;-67
2023/10/30 02:18:02;;;;;;;6.10;1.60;;;9.00;99.90;;;;;;4974034;28;20065;-67
2023/10/30 02:20:28;;;;;;;8.18;1.40;;;9.00;99.90;;;;;;4972229;28;20050;-67
2023/10/30 02:22:53;;;;;;;6.22;1.92;;;9.00;99.90;;;;;;4983969;28;20038;-68
2023/10/30 02:25:22;;;;;;;7.35;1.58;;;9.00;99.90;;;;;;4971997;28;20038;-70
2023/10/30 02:27:49;;;;;;;8.88;1.65;;;9.10;99.90;;;;;;4970817;28;20085;-68
2023/10/30 02:30:15;;;;;;;7.95;1.60;;;9.10;99.90;;;;;;4978796;28;20132;-68
2023/10/30 02:32:42;;;;;;;6.85;1.75;;;9.10;99.90;;;;;;4968677;28;20101;-68
2023/10/30 02:35:17;;;;;;;7.30;1.65;;;9.10;99.90;;;;;;4968320;28;20034;-68
2023/10/30 02:37:44;;;;;;;9.45;1.70;;;9.10;99.90;;;;;;4963485;28;20078;-67
2023/10/30 02:40:10;;;;;;;6.43;2.15;;;9.10;99.90;;;;;;4982371;28;20050;-66
2023/10/30 02:42:37;;;;;;;10.05;1.90;;;9.20;99.90;;;;;;4980530;28;20038;-70
2023/10/30 02:45:03;;;;;;;7.93;1.95;;;9.10;99.90;;;;;;4968501;28;20038;-68
2023/10/30 02:47:30;;;;;;;7.20;1.50;;;9.10;99.90;;;;;;4965344;28;20057;-68
2023/10/30 02:49:56;;;;;;;7.65;1.77;;;9.20;99.90;;;;;;4984640;28;20407;-67
2023/10/30 02:52:21;;;;;;;6.93;1.73;;;9.20;99.90;;;;;;4966981;28;20034;-67
2023/10/30 02:54:47;;;;;;;6.25;1.83;;;9.20;99.90;;;;;;4966586;28;20490;-68
2023/10/30 02:57:13;;;;;;;5.57;1.50;;;9.20;99.90;;;;;;4967468;28;20082;-67
2023/10/30 02:59:40;;;;;;;6.75;1.70;;;9.20;99.90;;;;;;4963886;28;20042;-68
2023/10/30 03:02:06;;;;;;;6.80;1.55;;;9.20;99.90;;;;;;4966214;28;20038;-68
2023/10/30 03:04:32;;;;;;;11.20;2.08;;;9.20;99.90;;;;;;4955821;28;20451;-67
2023/10/30 03:06:58;;;;;;;9.23;1.90;;;9.10;99.90;;;;;;4971338;28;20482;-67
2023/10/30 03:09:32;;;;;;;8.52;1.88;;;9.10;99.90;;;;;;4979147;28;20042;-70
2023/10/30 03:11:58;;;;;;;6.88;1.80;;;9.10;99.90;;;;;;4969078;28;20042;-69
2023/10/30 03:14:24;;;;;;;8.15;1.50;;;9.10;99.90;;;;;;4968880;28;20042;-67
2023/10/30 03:16:50;;;;;;;6.30;1.38;;;9.10;99.90;;;;;;4955735;28;20057;-68
2023/10/30 03:19:16;;;;;;;10.77;2.15;;;9.10;99.90;;;;;;4964897;28;20038;-67
2023/10/30 03:21:42;;;;;;;9.73;2.10;;;9.20;99.90;;;;;;4969349;28;20141;-70
2023/10/30 03:24:08;;;;;;;13.40;1.77;;;9.20;99.90;;;;;;4956245;28;20178;-69
2023/10/30 03:26:33;;;;;;;8.07;2.45;;;9.20;99.90;;;;;;4968562;28;20510;-68
2023/10/30 03:28:59;;;;;;;9.07;1.63;;;9.20;99.90;;;;;;4971887;28;20046;-70
2023/10/30 03:31:25;;;;;;;8.07;1.77;;;9.20;99.90;;;;;;4968949;28;20030;-69
2023/10/30 03:33:51;;;;;;;20.10;2.38;;;9.40;99.90;;;;;;4969777;28;20047;-69
2023/10/30 03:36:22;;;;;;;10.52;1.60;;;9.40;99.90;;;;;;4954913;28;20050;-68
2023/10/30 03:38:48;;;;;;;5.53;1.60;;;9.40;99.90;;;;;;4957174;28;20046;-68
2023/10/30 03:41:14;;;;;;;6.97;1.52;;;9.30;99.90;;;;;;4960742;28;20280;-69
2023/10/30 03:43:40;;;;;;;10.93;1.92;;;9.30;99.90;;;;;;4965783;28;20073;-66
2023/10/30 03:46:05;;;;;;;6.63;2.10;;;9.40;99.90;;;;;;4966072;28;20046;-68
2023/10/30 03:48:31;;;;;;;10.63;1.65;;;9.40;99.90;;;;;;4964883;28;20146;-68
2023/10/30 03:50:57;;;;;;;8.95;1.70;;;9.30;99.90;;;;;;4968963;28;20510;-66
2023/10/30 03:53:22;;;;;;;5.40;1.40;;;9.40;99.90;;;;;;4968912;28;20052;-70
2023/10/30 03:55:48;;;;;;;13.77;2.28;;;9.40;99.90;;;;;;4965663;28;20467;-73
2023/10/30 03:58:14;;;;;;;6.95;1.60;;;9.50;99.90;;;;;;4966440;28;20292;-71
2023/10/30 04:00:41;;;;;;;10.80;1.98;;;9.50;99.90;;;;;;4972527;28;20086;-67
2023/10/30 04:03:07;;;;;;;9.65;1.90;;;9.40;99.90;;;;;;4981414;28;20042;-71
2023/10/30 04:05:32;;;;;;;7.30;1.50;;;9.40;99.90;;;;;;4957161;28;20395;-68
2023/10/30 04:07:58;;;;;;;6.95;1.45;;;9.40;99.90;;;;;;4975604;28;20390;-69
2023/10/30 04:10:23;;;;;;;5.90;1.75;;;9.40;99.90;;;;;;4962616;28;20039;-67
2023/10/30 04:12:49;;;;;;;5.55;1.38;;;9.40;99.90;;;;;;4969787;28;20156;-69
2023/10/30 04:15:15;;;;;;;8.80;2.65;;;9.50;99.90;;;;;;4970656;28;20057;-69
2023/10/30 04:17:41;;;;;;;10.80;1.73;;;9.50;99.90;;;;;;4969524;28;20034;-67
2023/10/30 04:20:06;;;;;;;9.43;2.10;;;9.50;99.90;;;;;;4968464;28;20058;-68
2023/10/30 04:22:32;;;;;;;9.48;1.60;;;9.50;99.90;;;;;;4981179;28;20057;-72
2023/10/30 04:24:58;;;;;;;7.43;1.23;;;9.50;99.90;;;;;;4966843;28;20054;-69
2023/10/30 04:27:23;;;;;;;9.63;1.50;;;9.50;99.90;;;;;;4965168;28;20141;-69
2023/10/30 04:29:49;;;;;;;12.00;1.90;;;9.40;99.90;;;;;;4957137;28;20046;-68
2023/10/30 04:32:14;;;;;;;7.80;1.75;;;9.40;99.90;;;;;;4965431;28;20038;-67
2023/10/30 04:34:40;;;;;;;12.18;1.85;;;9.40;99.90;;;;;;4978573;28;20034;-66
2023/10/30 04:37:06;;;;;;;10.60;2.03;;;9.40;99.90;;;;;;4968188;28;20084;-66
2023/10/30 04:39:31;;;;;;;11.38;2.20;;;9.40;99.90;;;;;;4986120;28;20038;-68
2023/10/30 04:41:57;;;;;;;10.05;1.52;;;9.40;99.90;;;;;;4957483;28;20046;-68
2023/10/30 04:44:22;;;;;;;10.15;1.77;;;9.40;99.90;;;;;;4965539;28;20455;-71
2023/10/30 04:46:48;;;;;;;8.02;1.50;;;9.30;99.90;;;;;;4962797;28;20049;-69
2023/10/30 04:49:14;;;;;;;8.27;2.00;;;9.40;99.90;;;;;;4969006;28;20520;-69
2023/10/30 04:51:39;;;;;;;11.15;3.33;;;9.30;99.90;;;;;;4968690;28;20438;-72
2023/10/30 04:54:05;;;;;;;8.75;1.85;;;9.40;99.90;;;;;;4970980;28;20042;-67
2023/10/30 04:56:30;;;;;;;3.65;1.38;;;9.40;99.90;;;;;;4978362;28;20031;-72
2023/10/30 04:58:56;;;;;;;12.73;2.95;;;9.30;99.90;;;;;;4975063;28;20046;-69
2023/10/30 05:01:22;;;;;;;6.72;1.58;;;9.30;99.90;;;;;;4966892;28;20434;-68
2023/10/30 05:03:47;;;;;;;7.93;1.52;;;9.30;99.90;;;;;;4963062;28;20442;-70
2023/10/30 05:06:13;;;;;;;6.47;1.48;;;9.30;99.90;;;;;;4970198;28;20157;-70
2023/10/30 05:08:39;;;;;;;9.90;1.77;;;9.30;99.90;;;;;;4971612;28;20038;-68
2023/10/30 05:11:04;;;;;;;12.50;1.90;;;9.30;99.90;;;;;;4973544;28;20382;-69
2023/10/30 05:13:30;;;;;;;12.15;1.88;;;9.20;99.90;;;;;;4988293;28;20061;-68
2023/10/30 05:15:58;;;;;;;8.38;1.67;;;9.20;99.90;;;;;;4962418;28;20138;-70
2023/10/30 05:18:25;;;;;;;10.15;1.58;;;9.10;99.90;;;;;;4959661;28;20088;-68
2023/10/30 05:20:51;;;;;;;7.80;1.60;;;9.10;99.90;;;;;;4955782;28;20050;-69
2023/10/30 05:23:17;;;;;;;11.60;1.98;;;9.10;99.90;;;;;;4957500;28;20101;-69
2023/10/30 05:25:43;;;;;;;8.68;1.73;;;9.10;99.90;;;;;;4972273;28;20034;-68
2023/10/30 05:28:09;;;;;;;11.30;2.17;;;9.00;99.90;;;;;;4951110;28;20232;-68
2023/10/30 05:30:35;;;;;;;10.80;1.60;;;9.00;99.90;;;;;;4970324;28;20118;-70
2023/10/30 05:33:01;;;;;;;6.80;1.70;;;9.00;99.90;;;;;;4967775;28;20057;-67
2023/10/30 05:35:26;;;;;;;10.77;1.90;;;9.00;99.90;;;;;;4968816;28;20053;-67
2023/10/30 05:37:52;;;;;;;9.85;1.75;;;9.00;99.90;;;;;;4969123;28;20042;-68
2023/10/30 05:40:18;;;;;;;12.85;1.88;;;8.90;99.90;;;;;;4963169;28;20478;-70
2023/10/30 05:42:43;;;;;;;14.82;1.80;;;8.90;99.90;;;;;;4977471;28;20471;-66
2023/10/30 05:45:09;;;;;;;9.52;1.70;;;8.90;99.90;;;;;;4964842;28;20048;-68
2023/10/30 05:47:36;;;;;;;9.77;1.90;;;8.80;99.90;;;;;;4974501;28;20475;-71
2023/10/30 05:50:01;;;;;;;11.18;1.65;;;8.90;99.90;;;;;;4963758;28;20042;-70
2023/10/30 05:52:27;;;;;;;10.75;1.75;;;8.80;99.90;;;;;;4966112;28;20183;-68
2023/10/30 05:54:52;;;;;;;9.73;2.03;;;8.80;99.90;;;;;;4965367;28;20042;-68
2023/10/30 05:57:18;;;;;;;13.82;3.00;;;8.80;99.90;;;;;;4967278;28;20077;-67
2023/10/30 05:59:44;;;;;;;7.63;1.75;;;8.90;99.90;;;;;;4974623;28;20045;-68
2023/10/30 06:02:09;;;;;;;10.93;1.83;;;8.80;99.90;;;;;;4971962;28;20046;-67
2023/10/30 06:04:35;;;;;;;10.38;1.80;;;8.80;99.90;;;;;;4962315;28;20124;-68
2023/10/30 06:07:01;;;;;;;8.85;1.90;;;8.80;99.90;;;;;;4968573;28;20038;-69
2023/10/30 06:09:27;;;;;;;9.45;1.58;;;8.90;99.90;;;;;;4965270;28;20045;-69
2023/10/30 06:11:52;;;;;;;11.55;2.00;;;8.90;99.90;;;;;;4964127;28;20042;-71
2023/10/30 06:14:18;;;;;;;10.27;1.80;;;8.80;99.90;;;;;;4964845;28;20197;-70
2023/10/30 06:16:44;;;;;;;7.93;1.48;;;8.90;99.90;;;;;;4968381;28;20038;-67
2023/10/30 06:19:10;;;;;;;7.85;1.80;;;8.80;99.90;;;;;;4967060;28;20117;-69
2023/10/30 06:21:38;;;;;;;6.65;2.13;;;8.90;99.90;;;;;;4961324;28;20051;-67
2023/10/30 06:24:06;;;;;;;9.40;2.35;;;8.80;99.90;;;;;;4966908;28;20226;-71
2023/10/30 06:26:31;;;;;;;6.93;1.70;;;8.80;99.90;;;;;;4967995;28;20049;-71
2023/10/30 06:28:57;;;;;;;7.13;1.70;;;8.80;99.90;;;;;;4970310;28;20042;-69
2023/10/30 06:31:22;;;;;;;8.93;1.60;;;8.80;99.90;;;;;;4954559;28;20038;-70
2023/10/30 06:33:48;;;;;;;8.60;1.90;;;8.80;99.90;;;;;;4951705;28;20077;-68
2023/10/30 06:36:14;;;;;;;8.15;1.80;;;8.90;99.90;;;;;;4985413;28;20046;-67
2023/10/30 06:38:40;;;;;;;11.25;1.90;;;8.90;99.90;;;;;;4970598;28;20348;-69
2023/10/30 06:41:06;;;;;;;11.02;2.33;;;9.00;99.90;;;;;;4981633;28;20057;-67
2023/10/30 06:43:32;;;;;;;11.82;2.65;;;9.00;99.90;;;;;;4969128;28;20553;-67
2023/10/30 06:46:04;;;;;;;12.55;1.85;;;9.10;99.90;;;;;;4962362;28;20184;-67
2023/10/30 06:48:31;;;;;;;7.65;1.48;;;9.10;99.90;;;;;;4963232;28;20095;-67
2023/10/30 06:50:57;;;;;;;11.77;2.35;;;9.10;99.90;;;;;;4971359;28;20092;-67
2023/10/30 06:53:23;;;;;;;11.95;2.33;;;9.10;99.90;;;;;;4971950;28;20046;-67
2023/10/30 06:55:50;;;;;;;8.95;2.00;;;9.10;99.90;;;;;;4969668;28;20145;-69
2023/10/30 06:58:16;;;;;;;9.93;2.00;;;9.20;99.90;;;;;;4970454;28;20463;-69
2023/10/30 07:00:42;;;;;;;10.32;2.30;;;9.30;99.90;;;;;;4966374;28;20050;-68
2023/10/30 07:03:08;;;;;;;10.73;2.05;;;9.50;99.90;;;;;;4970002;28;20042;-67
2023/10/30 07:05:34;;;;;;;10.70;2.05;;;9.50;99.90;;;;;;4970970;28;20065;-69
2023/10/30 07:07:59;;;;;;;8.80;1.80;;;9.60;99.90;;;;;;4970050;28;20076;-71
2023/10/30 07:10:25;;;;;;;10.93;1.88;;;9.60;99.90;;;;;;4968806;28;20046;-68
2023/10/30 07:12:50;;;;;;;11.25;2.22;;;9.70;99.90;;;;;;4968078;28;20042;-67
2023/10/30 07:15:16;;;;;;;11.52;1.88;;;9.70;99.90;;;;;;4984570;28;20121;-68
2023/10/30 07:17:41;;;;;;;8.05;1.88;;;9.80;99.90;;;;;;4967935;28;20467;-71
2023/10/30 07:20:08;;;;;;;9.88;1.92;;;9.80;99.90;;;;;;4966316;28;20064;-66
2023/10/30 07:22:34;;;;;;;7.72;1.60;;;9.80;99.90;;;;;;4970522;28;20034;-66
2023/10/30 07:25:00;;;;;;;10.10;2.75;;;9.90;99.90;;;;;;4969370;28;20041;-69
2023/10/30 07:27:26;;;;;;;7.53;1.48;;;9.90;99.90;;;;;;4965049;28;20108;-68
2023/10/30 07:29:52;;;;;;;14.63;2.08;;;9.90;99.90;;;;;;4968844;28;20089;-66
2023/10/30 07:32:17;;;;;;;11.63;2.00;;;10.00;99.90;;;;;;4969239;28;20602;-68
2023/10/30 07:34:44;;;;;;;4.72;1.80;;;10.00;99.90;;;;;;4966074;28;20050;-67
2023/10/30 07:37:10;;;;;;;11.82;2.20;;;10.10;99.90;;;;;;4950356;28;20088;-68
2023/10/30 07:39:35;;;;;;;7.07;1.42;;;10.10;99.90;;;;;;4987112;28;20034;-70
2023/10/30 07:42:01;;;;;;;10.85;2.05;;;10.20;99.90;;;;;;4972455;28;20053;-70
2023/10/30 07:44:27;;;;;;;10.50;1.95;;;10.30;99.90;;;;;;4971873;28;20044;-69
2023/10/30 07:46:52;;;;;;;9.02;1.70;;;10.30;99.90;;;;;;4973242;28;20053;-67
2023/10/30 07:49:19;;;;;;;13.32;2.08;;;10.30;99.90;;;;;;4972490;28;20044;-71
2023/10/30 07:51:45;;;;;;;8.35;1.80;;;10.40;99.90;;;;;;4972381;28;20046;-68
2023/10/30 07:54:10;;;;;;;8.30;1.90;;;10.50;99.90;;;;;;4972266;28;20511;-70
2023/10/30 07:56:36;;;;;;;9.98;2.05;;;10.50;99.90;;;;;;4973864;28;20042;-68
2023/10/30 07:59:06;;;;;;;11.00;1.80;;;10.60;99.90;;;;;;4970424;28;20370;-67
2023/10/30 08:01:31;;;;;;;12.48;1.75;;;10.70;99.90;;;;;;4971880;28;20466;-69
2023/10/30 08:03:59;;;;;;;7.15;1.70;;;10.70;99.90;;;;;;4973792;28;20055;-69
2023/10/30 08:06:25;;;;;;;10.00;1.75;;;10.80;99.90;;;;;;4967606;28;20032;-68
2023/10/30 08:08:52;;;;;;;6.72;1.85;;;10.90;99.90;;;;;;4975116;28;20034;-70
2023/10/30 08:11:17;;;;;;;7.35;2.20;;;10.90;99.90;;;;;;4956057;28;20049;-70
2023/10/30 08:13:43;;;;;;;12.07;1.90;;;11.00;99.90;;;;;;4971736;28;20035;-67
2023/10/30 08:16:10;;;;;;;7.75;1.70;;;11.10;99.90;;;;;;4972207;28;20251;-68
2023/10/30 08:18:36;;;;;;;7.22;1.70;;;11.10;99.90;;;;;;4952645;28;20069;-68
2023/10/30 08:21:01;;;;;;;8.98;1.95;;;11.30;99.90;;;;;;4973583;28;20055;-68
2023/10/30 08:23:27;;;;;;;10.57;1.85;;;11.40;99.90;;;;;;4958512;28;20062;-74
2023/10/30 08:25:53;;;;;;;6.78;1.48;;;11.50;99.90;;;;;;4975551;28;20034;-69
2023/10/30 08:28:19;;;;;;;7.45;1.70;;;11.60;99.90;;;;;;4966025;28;20427;-70
2023/10/30 08:30:45;;;;;;;6.20;1.40;;;11.60;99.90;;;;;;4973311;28;20042;-73
2023/10/30 08:33:10;;;;;;;6.22;1.50;;;11.60;99.90;;;;;;4969999;28;20061;-66
2023/10/30 08:35:36;;;;;;;8.07;1.85;;;11.70;99.90;;;;;;4973711;28;20038;-68
2023/10/30 08:38:03;;;;;;;14.13;2.00;;;11.70;99.90;;;;;;4974048;28;20047;-68
2023/10/30 08:40:29;;;;;;;7.28;2.60;;;11.80;99.90;;;;;;4973523;28;20054;-68
2023/10/30 08:42:54;;;;;;;5.25;1.70;;;11.90;99.90;;;;;;4971187;28;20042;-69
2023/10/30 08:45:21;;;;;;;8.27;1.70;;;12.00;99.90;;;;;;4973210;28;20485;-73
2023/10/30 08:47:47;;;;;;;10.43;1.90;;;12.10;99.90;;;;;;4972242;28;20489;-69
2023/10/30 08:50:12;;;;;;;11.73;2.05;;;12.10;99.90;;;;;;4973093;28;20043;-71
2023/10/30 08:52:39;;;;;;;10.05;1.70;;;12.10;99.90;;;;;;4972222;28;20042;-68
2023/10/30 08:55:05;;;;;;;8.18;1.90;;;12.10;99.90;;;;;;4974818;28;20070;-71
2023/10/30 08:57:31;;;;;;;10.50;2.10;;;12.20;99.90;;;;;;4972826;28;20419;-67
2023/10/30 08:59:56;;;;;;;8.63;1.85;;;12.20;99.90;;;;;;4971246;28;20070;-70
2023/10/30 09:02:22;;;;;;;10.52;1.90;;;12.30;99.90;;;;;;4961466;28;20041;-67
2023/10/30 09:04:47;;;;;;;9.95;2.38;;;12.40;99.90;;;;;;4975272;28;20038;-69
2023/10/30 09:07:13;;;;;;;7.22;1.60;;;12.40;99.90;;;;;;4971288;28;20128;-69
2023/10/30 09:09:39;;;;;;;13.88;2.22;;;12.50;99.90;;;;;;4968888;28;20191;-69
2023/10/30 09:12:05;;;;;;;11.27;1.85;;;12.50;99.90;;;;;;4971395;28;20446;-68
2023/10/30 09:14:30;;;;;;;7.40;1.63;;;12.60;99.90;;;;;;4972395;28;20141;-69
2023/10/30 09:16:56;;;;;;;10.05;1.95;;;12.60;99.90;;;;;;4970809;28;20337;-70
2023/10/30 09:19:22;;;;;;;9.07;1.52;;;12.70;99.90;;;;;;4976403;28;20398;-70
2023/10/30 09:21:48;;;;;;;9.68;1.60;;;12.80;99.90;;;;;;4951598;29;20050;-67
2023/10/30 09:24:14;;;;;;;8.30;1.60;;;12.90;99.90;;;;;;4935314;29;20035;-66
2023/10/30 09:26:39;;;;;;;9.80;1.92;;;12.90;99.90;;;;;;4946632;28;20044;-70
2023/10/30 09:29:05;;;;;;;7.97;1.90;;;13.00;99.90;;;;;;4933227;29;20039;-67
2023/10/30 09:31:31;;;;;;;11.48;1.85;;;13.00;99.90;;;;;;4952599;28;20491;-70
2023/10/30 09:33:57;;;;;;;7.95;1.77;;;13.10;99.90;;;;;;4945166;29;20047;-70
2023/10/30 09:36:23;;;;;;;10.48;2.15;;;13.10;99.90;;;;;;4932856;29;20047;-68
2023/10/30 09:38:49;;;;;;;12.40;1.98;;;13.10;99.90;;;;;;4946508;28;20053;-71
2023/10/30 09:41:18;;;;;;;8.50;1.77;;;13.20;99.90;;;;;;4950478;29;20364;-70
2023/10/30 09:43:46;;;;;;;6.65;2.08;;;13.20;99.90;;;;;;4950065;29;20130;-69
2023/10/30 09:46:14;;;;;;;10.18;2.22;;;13.20;99.90;;;;;;4945521;28;20039;-68
2023/10/30 09:48:43;;;;;;;10.23;2.53;;;13.20;99.90;;;;;;4926392;28;20043;-69
2023/10/30 09:51:08;;;;;;;8.68;2.20;;;13.30;99.90;;;;;;4964054;28;20090;-68
2023/10/30 09:53:36;;;;;;;8.50;1.50;;;13.20;99.90;;;;;;4949778;28;20067;-65
2023/10/30 09:56:03;;;;;;;6.45;1.60;;;13.20;99.90;;;;;;4948713;28;20162;-65
2023/10/30 09:58:30;;;;;;;8.75;1.55;;;13.10;99.90;;;;;;4943199;28;20098;-66
2023/10/30 10:00:57;;;;;;;10.13;2.33;;;13.10;99.90;;;;;;4944702;28;20039;-65
2023/10/30 10:03:23;;;;;;;9.13;2.03;;;13.10;99.90;;;;;;4947588;28;20039;-66
2023/10/30 10:05:56;;;;;;;10.73;2.05;;;13.00;99.90;;;;;;4946515;28;20392;-68
2023/10/30 10:08:22;;;;;;;11.40;1.92;;;12.90;99.90;;;;;;4957007;28;20090;-67
2023/10/30 10:10:59;;;;;;;9.80;1.73;;;12.80;99.90;;;;;;4947496;28;20061;-67
2023/10/30 10:13:26;;;;;;;9.63;1.95;;;12.80;99.90;;;;;;4943796;28;20053;-68
2023/10/30 10:15:52;;;;;;;9.02;1.85;;;12.70;99.90;;;;;;4941301;28;20146;-67
2023/10/30 10:18:28;;;;;;;10.65;1.83;;;12.80;99.90;;;;;;4933790;28;20059;-66
2023/10/30 10:21:00;;;;;;;8.98;1.70;;;12.80;99.90;;;;;;4949059;28;20086;-66
2023/10/30 10:23:30;;;;;;;7.43;1.60;;;12.80;99.90;;;;;;4930791;28;20053;-66
2023/10/30 10:25:56;;;;;;;8.88;2.22;;;12.80;99.90;;;;;;4964136;28;20357;-65
2023/10/30 10:28:25;;;;;;;6.10;1.55;;;12.90;99.90;;;;;;4950770;28;20054;-68
2023/10/30 10:30:53;;;;;;;7.43;1.65;;;13.00;99.90;;;;;;4964589;28;20112;-66
2023/10/30 10:33:24;;;;;;;6.47;1.70;;;13.10;99.90;;;;;;4971578;28;20038;-67
2023/10/30 10:36:01;;;;;;;4.55;1.33;;;13.20;99.90;;;;;;4950380;28;20185;-66
2023/10/30 10:38:27;;;;;;;10.43;1.52;;;13.40;99.90;;;;;;4962780;28;20344;-68
2023/10/30 10:40:55;;;;;;;12.00;2.20;;;13.40;99.90;;;;;;4965234;28;20046;-67
2023/10/30 10:43:21;;;;;;;8.63;2.20;;;13.50;99.90;;;;;;4964999;28;20085;-66
2023/10/30 10:45:49;;;;;;;7.70;2.10;;;13.60;99.90;;;;;;4966714;28;20504;-68
2023/10/30 10:48:15;;;;;;;7.32;1.77;;;13.60;99.90;;;;;;4965108;28;20035;-66
2023/10/30 10:50:42;;;;;;;6.45;1.73;;;13.70;99.90;;;;;;4968384;28;20043;-66
2023/10/30 10:53:10;;;;;;;13.07;2.25;;;13.70;99.90;;;;;;4968828;28;20038;-68
2023/10/30 10:55:46;;;;;;;9.30;1.83;;;13.80;99.90;;;;;;4967616;28;20047;-65
2023/10/30 10:58:18;;;;;;;11.68;1.92;;;13.90;99.90;;;;;;4965047;28;20091;-68
2023/10/30 11:00:47;;;;;;;10.27;1.70;;;14.00;99.90;;;;;;4965956;28;20058;-67
2023/10/30 11:03:13;;;;;;;9.63;2.50;;;14.00;99.90;;;;;;4960755;28;20047;-66
2023/10/30 11:05:39;;;;;;;9.52;2.00;;;14.10;99.90;;;;;;4966523;28;20311;-69
2023/10/30 11:08:38;;;;;;;9.48;1.85;;;14.10;99.90;;;;;;4964965;28;20445;-68
2023/10/30 11:11:19;;;;;;;8.40;1.60;;;14.00;99.90;;;;;;4959215;28;20039;-66
2023/10/30 11:14:09;;;;;;;13.07;1.80;;;14.00;99.90;;;;;;4946123;28;20122;-73
2023/10/30 11:16:43;;;;;;;10.07;1.77;;;13.90;99.90;;;;;;4964685;28;20053;-73
2023/10/30 11:19:10;;;;;;;10.70;1.95;;;14.00;99.90;;;;;;4967012;28;20046;-77
2023/10/30 11:21:35;;;;;;;10.07;2.00;;;14.00;99.90;;;;;;4990936;28;20463;-77
2023/10/30 11:24:02;;;;;;;8.57;1.90;;;14.10;99.90;;;;;;4957492;28;20043;-73
2023/10/30 11:26:36;;;;;;;7.53;1.58;;;14.10;99.90;;;;;;4971998;28;20484;-71
2023/10/30 11:29:22;;;;;;;9.35;1.80;;;14.10;99.90;;;;;;4974865;28;20466;-75
2023/10/30 11:32:04;;;;;;;7.85;1.60;;;14.10;99.90;;;;;;4985535;28;20053;-77
2023/10/30 11:34:34;;;;;;;10.55;1.60;;;14.00;99.90;;;;;;4957636;28;20046;-76
2023/10/30 11:37:09;;;;;;;9.77;1.63;;;14.20;99.90;;;;;;4982974;28;20038;-77
2023/10/30 11:39:37;;;;;;;9.25;2.75;;;14.20;99.90;;;;;;4973100;28;20038;-75
2023/10/30 11:42:04;;;;;;;8.00;2.00;;;14.30;99.90;;;;;;4973014;28;20038;-71
2023/10/30 11:44:31;;;;;;;6.43;1.45;;;14.30;99.90;;;;;;4976423;28;20053;-79
2023/10/30 11:46:57;;;;;;;12.27;2.42;;;14.20;99.90;;;;;;4978986;28;20041;-70
2023/10/30 11:49:30;;;;;;;6.68;1.60;;;14.20;99.90;;;;;;4975973;28;20429;-75
2023/10/30 11:51:56;;;;;;;10.35;1.80;;;14.20;99.90;;;;;;4981454;28;20034;-77
2023/10/30 11:54:32;;;;;;;8.02;1.70;;;14.10;99.90;;;;;;4971836;28;20581;-72
2023/10/30 11:57:00;;;;;;;7.63;1.98;;;14.10;99.90;;;;;;4989695;28;20037;-79
2023/10/30 11:59:27;;;;;;;10.32;1.83;;;14.20;99.90;;;;;;4975240;28;20038;-75
2023/10/30 12:01:54;;;;;;;10.63;1.90;;;14.30;99.90;;;;;;4963838;28;20042;-69
2023/10/30 12:04:21;;;;;;;8.90;1.75;;;14.20;99.90;;;;;;4987836;28;20054;-79
2023/10/30 12:06:46;;;;;;;13.68;2.15;;;14.10;99.90;;;;;;4974968;28;20061;-78
2023/10/30 12:09:12;;;;;;;8.40;1.90;;;14.00;99.90;;;;;;4974720;28;20038;-73
2023/10/30 12:11:38;;;;;;;7.55;1.73;;;14.00;99.90;;;;;;4972749;28;20111;-72
2023/10/30 12:14:04;;;;;;;10.30;2.17;;;14.00;99.90;;;;;;4955705;28;20189;-72
2023/10/30 12:16:30;;;;;;;10.45;2.05;;;14.00;99.90;;;;;;4977610;28;20089;-73
2023/10/30 12:18:56;;;;;;;8.43;1.77;;;14.00;99.90;;;;;;4973323;28;20459;-72
2023/10/30 12:21:22;;;;;;;9.00;1.48;;;14.10;99.90;;;;;;4979246;28;20054;-73
2023/10/30 12:23:49;;;;;;;5.45;1.92;;;14.10;99.90;;;;;;4979134;28;20380;-72
2023/10/30 12:26:15;;;;;;;8.90;2.05;;;14.10;99.90;;;;;;4974366;28;20042;-70
2023/10/30 12:28:40;;;;;;;5.57;1.70;;;14.10;99.90;;;;;;4973659;28;20511;-73
2023/10/30 12:31:20;;;;;;;11.18;2.35;;;14.10;99.90;;;;;;4989843;28;20047;-73
2023/10/30 12:33:46;;;;;;;13.82;2.90;;;14.10;99.90;;;;;;4983149;28;20050;-73
2023/10/30 12:36:12;;;;;;;10.63;1.80;;;14.00;99.90;;;;;;4972244;28;20046;-72
2023/10/30 12:38:38;;;;;;;9.30;2.20;;;14.00;99.90;;;;;;4969047;28;20062;-72
2023/10/30 12:41:06;;;;;;;7.55;1.40;;;14.10;99.90;;;;;;4989945;28;20038;-72
2023/10/30 12:43:41;;;;;;;7.60;2.00;;;14.20;99.90;;;;;;4983731;28;20038;-74
2023/10/30 12:46:08;;;;;;;9.43;1.70;;;14.20;99.90;;;;;;4973493;28;20508;-74
2023/10/30 12:48:34;;;;;;;14.93;2.63;;;14.10;99.90;;;;;;4966259;28;20111;-74